createdAt,value
2017-11-12T00:01:55.709Z,100.00
2017-11-12T00:04:26.267Z,100.00
2017-11-12T00:06:56.698Z,100.00
2017-11-12T00:09:28.298Z,100.00
2017-11-12T00:11:59.210Z,100.00
2017-11-12T00:14:30.640Z,100.00
2017-11-12T00:17:00.828Z,100.00
2017-11-12T00:19:30.922Z,100.00
2017-11-12T00:22:00.846Z,100.00
2017-11-12T00:24:31.243Z,100.00
2017-11-12T00:27:01.537Z,100.00
2017-11-12T00:29:32.109Z,100.00
2017-11-12T00:32:02.047Z,99.71
2017-11-12T00:34:32.061Z,100.00
2017-11-12T00:37:02.756Z,100.00
2017-11-12T00:39:47.665Z,100.00
2017-11-12T00:42:17.842Z,100.00
2017-11-12T00:44:47.873Z,100.00
2017-11-12T00:47:17.707Z,100.00
2017-11-12T00:49:48.129Z,100.00
2017-11-12T00:52:18.076Z,100.00
2017-11-12T00:54:48.739Z,100.00
2017-11-12T00:57:19.129Z,100.00
2017-11-12T00:59:53.412Z,100.00
2017-11-12T01:02:25.642Z,100.00
2017-11-12T01:04:56.403Z,100.00
2017-11-12T01:07:35.700Z,100.00
2017-11-12T01:10:05.307Z,100.00
2017-11-12T01:12:35.069Z,100.00
2017-11-12T01:15:06.271Z,100.00
2017-11-12T01:17:36.180Z,100.00
2017-11-12T01:20:06.234Z,100.00
2017-11-12T01:22:36.502Z,100.00
2017-11-12T01:25:07.523Z,100.00
2017-11-12T01:27:37.489Z,100.00
2017-11-12T01:30:07.850Z,100.00
2017-11-12T01:32:38.163Z,100.00
2017-11-12T01:35:11.607Z,100.00
2017-11-12T01:37:42.498Z,100.00
2017-11-12T01:40:13.243Z,100.00
2017-11-12T01:42:43.580Z,100.00
2017-11-12T01:45:21.436Z,100.00
2017-11-12T01:47:51.333Z,100.00
2017-11-12T01:50:21.268Z,100.00
2017-11-12T01:52:51.532Z,100.00
2017-11-12T01:55:21.444Z,100.00
2017-11-12T01:57:51.556Z,100.00
2017-11-12T02:00:21.246Z,100.00
2017-11-12T02:02:50.605Z,100.00
2017-11-12T02:05:20.616Z,100.00
2017-11-12T02:07:50.924Z,100.00
2017-11-12T02:10:22.152Z,100.00
2017-11-12T02:12:53.970Z,100.00
2017-11-12T02:15:25.195Z,100.00
2017-11-12T02:17:55.702Z,100.00
2017-11-12T02:20:25.643Z,100.00
2017-11-12T02:22:55.766Z,100.00
2017-11-12T02:25:26.142Z,100.00
2017-11-12T02:27:57.273Z,100.00
2017-11-12T02:30:27.539Z,100.00
2017-11-12T02:32:57.891Z,100.00
2017-11-12T02:35:28.953Z,100.00
2017-11-12T02:37:59.585Z,100.00
2017-11-12T02:40:29.411Z,100.00
2017-11-12T02:43:02.434Z,100.00
2017-11-12T02:45:32.304Z,100.00
2017-11-12T02:48:02.672Z,100.00
2017-11-12T02:50:32.853Z,100.00
2017-11-12T02:53:04.207Z,100.00
2017-11-12T02:55:35.192Z,100.00
2017-11-12T03:03:17.640Z,100.00
2017-11-12T03:08:22.881Z,99.78
2017-11-12T03:10:55.136Z,99.22
2017-11-12T03:13:25.249Z,100.00
2017-11-12T03:15:56.091Z,99.45
2017-11-12T03:18:26.241Z,98.43
2017-11-12T03:20:56.479Z,99.34
2017-11-12T03:23:27.245Z,99.50
2017-11-12T03:25:59.562Z,99.49
2017-11-12T03:28:29.972Z,95.13
2017-11-12T03:30:59.913Z,95.46
2017-11-12T03:33:31.341Z,93.42
2017-11-12T03:36:02.223Z,94.49
2017-11-12T03:38:32.676Z,97.37
2017-11-12T03:41:04.255Z,97.11
2017-11-12T03:43:34.208Z,97.64
2017-11-12T03:46:04.516Z,94.56
2017-11-12T03:48:34.110Z,96.18
2017-11-12T03:51:04.101Z,98.52
2017-11-12T03:53:34.128Z,99.18
2017-11-12T03:56:04.382Z,97.74
2017-11-12T03:58:34.536Z,98.12
2017-11-12T04:01:04.788Z,98.52
2017-11-12T04:03:34.809Z,98.14
2017-11-12T04:06:08.566Z,99.15
2017-11-12T04:08:39.241Z,97.51
2017-11-12T04:11:09.241Z,97.73
2017-11-12T04:13:39.130Z,97.93
2017-11-12T04:16:09.044Z,98.79
2017-11-12T04:18:39.099Z,98.80
2017-11-12T04:21:10.091Z,98.75
2017-11-12T04:23:40.017Z,96.79
2017-11-12T04:26:10.319Z,97.23
2017-11-12T04:28:40.197Z,98.49
2017-11-12T04:31:11.144Z,99.68
2017-11-12T04:33:45.719Z,99.08
2017-11-12T04:36:15.828Z,99.49
2017-11-12T04:38:47.397Z,98.70
2017-11-12T04:41:17.361Z,98.78
2017-11-12T04:43:47.215Z,97.87
2017-11-12T04:46:19.473Z,98.21
2017-11-12T04:48:49.484Z,97.95
2017-11-12T04:51:19.378Z,98.17
2017-11-12T04:53:49.464Z,97.54
2017-11-12T04:56:19.873Z,96.81
2017-11-12T04:58:50.227Z,96.22
2017-11-12T05:01:19.802Z,96.01
2017-11-12T05:03:50.145Z,95.45
2017-11-12T05:06:20.332Z,95.57
2017-11-12T05:08:52.090Z,95.22
2017-11-12T05:11:22.451Z,95.11
2017-11-12T05:13:52.338Z,95.66
2017-11-12T05:16:23.103Z,96.13
2017-11-12T05:18:53.793Z,96.32
2017-11-12T05:21:25.208Z,96.29
2017-11-12T05:23:55.351Z,96.71
2017-11-12T05:26:25.611Z,96.53
2017-11-12T05:28:55.531Z,96.69
2017-11-12T05:31:25.512Z,97.50
2017-11-12T05:33:56.228Z,96.46
2017-11-12T05:36:26.312Z,97.29
2017-11-12T05:39:00.336Z,97.25
2017-11-12T05:41:30.908Z,97.80
2017-11-12T05:44:01.886Z,97.45
2017-11-12T05:46:32.291Z,97.91
2017-11-12T05:49:03.227Z,98.48
2017-11-12T05:51:34.338Z,98.73
2017-11-12T05:54:04.556Z,97.26
2017-11-12T05:56:39.491Z,96.81
2017-11-12T05:59:09.756Z,97.05
2017-11-12T06:01:45.470Z,96.94
2017-11-12T06:04:15.379Z,97.02
2017-11-12T06:06:47.627Z,97.40
2017-11-12T06:09:18.879Z,96.48
2017-11-12T06:11:50.204Z,96.46
2017-11-12T06:14:20.310Z,97.12
2017-11-12T06:16:50.263Z,96.67
2017-11-12T06:21:53.856Z,95.92
2017-11-12T06:24:24.197Z,96.25
2017-11-12T06:26:54.540Z,96.28
2017-11-12T06:29:24.093Z,94.79
2017-11-12T06:31:54.008Z,94.06
2017-11-12T06:34:23.753Z,94.40
2017-11-12T06:36:53.564Z,95.05
2017-11-12T06:39:23.288Z,95.17
2017-11-12T06:41:53.443Z,94.33
2017-11-12T06:44:23.321Z,94.11
2017-11-12T06:46:53.091Z,93.81
2017-11-12T06:49:22.886Z,94.82
2017-11-12T06:51:52.661Z,94.39
2017-11-12T06:54:22.389Z,93.93
2017-11-12T06:56:52.815Z,94.48
2017-11-12T06:59:22.904Z,94.09
2017-11-12T07:01:53.118Z,94.17
2017-11-12T07:04:23.022Z,93.41
2017-11-12T07:06:53.344Z,93.43
2017-11-12T07:09:23.694Z,92.98
2017-11-12T07:11:53.915Z,92.99
2017-11-12T07:14:23.671Z,93.15
2017-11-12T07:16:53.137Z,93.70
2017-11-12T07:19:23.454Z,93.68
2017-11-12T07:21:53.766Z,94.05
2017-11-12T07:24:24.320Z,93.65
2017-11-12T07:26:54.627Z,93.28
2017-11-12T07:29:25.776Z,93.37
2017-11-12T07:31:55.941Z,92.70
2017-11-12T07:34:25.938Z,92.10
2017-11-12T07:36:55.954Z,92.83
2017-11-12T07:39:25.871Z,93.40
2017-11-12T07:41:55.749Z,93.60
2017-11-12T07:44:26.479Z,93.73
2017-11-12T07:46:56.979Z,93.73
2017-11-12T07:49:27.419Z,93.44
2017-11-12T07:51:57.426Z,93.07
2017-11-12T07:54:27.946Z,93.18
2017-11-12T07:56:57.746Z,92.68
2017-11-12T07:59:29.606Z,93.56
2017-11-12T08:02:04.337Z,93.50
2017-11-12T08:04:34.158Z,93.12
2017-11-12T08:07:04.351Z,93.82
2017-11-12T08:09:34.409Z,93.25
2017-11-12T08:12:04.681Z,91.91
2017-11-12T08:14:34.769Z,92.46
2017-11-12T08:17:04.611Z,92.62
2017-11-12T08:19:34.720Z,93.92
2017-11-12T08:22:04.573Z,95.06
2017-11-12T08:24:34.402Z,94.90
2017-11-12T08:27:04.410Z,95.29
2017-11-12T08:29:34.704Z,95.71
2017-11-12T08:32:04.948Z,95.86
2017-11-12T08:34:35.293Z,95.65
2017-11-12T08:37:05.451Z,94.13
2017-11-12T08:39:36.123Z,93.83
2017-11-12T08:42:05.778Z,93.32
2017-11-12T08:44:36.687Z,91.22
2017-11-12T08:47:06.905Z,90.78
2017-11-12T08:49:37.569Z,90.29
2017-11-12T08:52:07.366Z,88.25
2017-11-12T08:54:37.370Z,87.06
2017-11-12T08:57:07.336Z,87.37
2017-11-12T08:59:37.767Z,87.31
2017-11-12T09:02:08.073Z,86.83
2017-11-12T09:04:37.902Z,86.67
2017-11-12T09:07:07.787Z,87.05
2017-11-12T09:09:37.565Z,88.99
2017-11-12T09:12:07.395Z,89.67
2017-11-12T09:14:37.515Z,90.12
2017-11-12T09:17:07.379Z,89.96
2017-11-12T09:19:37.458Z,84.60
2017-11-12T09:22:07.571Z,83.48
2017-11-12T09:24:42.272Z,83.37
2017-11-12T09:27:12.116Z,84.06
2017-11-12T09:29:42.105Z,84.56
2017-11-12T09:32:11.894Z,84.99
2017-11-12T09:34:41.643Z,84.62
2017-11-12T09:37:11.422Z,85.42
2017-11-12T09:39:41.485Z,85.51
2017-11-12T09:42:11.308Z,86.33
2017-11-12T09:44:41.910Z,85.31
2017-11-12T09:47:11.879Z,85.70
2017-11-12T09:49:41.825Z,84.47
2017-11-12T09:52:11.701Z,84.56
2017-11-12T09:54:41.437Z,84.05
2017-11-12T09:57:11.205Z,82.34
2017-11-12T09:59:40.949Z,81.79
2017-11-12T10:02:10.706Z,82.33
2017-11-12T10:04:40.446Z,81.72
2017-11-12T10:07:10.200Z,82.43
2017-11-12T10:09:39.933Z,82.69
2017-11-12T10:12:09.943Z,79.37
2017-11-12T10:14:40.957Z,81.28
2017-11-12T10:17:10.709Z,79.92
2017-11-12T10:19:40.475Z,78.73
2017-11-12T10:22:10.287Z,76.95
2017-11-12T10:24:40.050Z,76.17
2017-11-12T10:27:10.169Z,74.30
2017-11-12T10:29:40.400Z,75.26
2017-11-12T10:32:10.140Z,75.99
2017-11-12T10:34:39.881Z,77.95
2017-11-12T10:37:10.014Z,79.19
2017-11-12T10:39:39.850Z,79.38
2017-11-12T10:42:09.587Z,77.75
2017-11-12T10:44:39.462Z,76.52
2017-11-12T10:47:09.206Z,75.76
2017-11-12T10:49:38.775Z,78.51
2017-11-12T10:52:08.671Z,77.61
2017-11-12T10:54:38.473Z,81.03
2017-11-12T10:57:08.241Z,82.71
2017-11-12T10:59:37.983Z,81.50
2017-11-12T11:02:08.069Z,81.63
2017-11-12T11:04:37.894Z,82.15
2017-11-12T11:07:07.651Z,82.76
2017-11-12T11:09:37.687Z,82.40
2017-11-12T11:12:07.457Z,81.35
2017-11-12T11:14:37.217Z,81.42
2017-11-12T11:17:07.618Z,80.94
2017-11-12T11:19:37.339Z,81.44
2017-11-12T11:22:06.600Z,81.49
2017-11-12T11:24:36.398Z,81.27
2017-11-12T11:27:06.274Z,81.11
2017-11-12T11:29:36.146Z,81.77
2017-11-12T11:32:06.446Z,81.53
2017-11-12T11:34:38.341Z,82.13
2017-11-12T11:37:09.167Z,80.23
2017-11-12T11:39:38.977Z,80.99
2017-11-12T11:42:08.764Z,79.81
2017-11-12T11:44:38.557Z,79.15
2017-11-12T11:47:08.513Z,78.14
2017-11-12T11:49:38.549Z,80.59
2017-11-12T11:52:08.500Z,80.57
2017-11-12T11:54:38.251Z,81.36
2017-11-12T11:57:08.307Z,81.85
2017-11-12T11:59:38.966Z,82.38
2017-11-12T12:02:08.790Z,83.73
2017-11-12T12:04:38.924Z,84.89
2017-11-12T12:07:08.699Z,84.42
2017-11-12T12:09:38.819Z,84.26
2017-11-12T12:12:08.707Z,84.63
2017-11-12T12:14:38.534Z,83.90
2017-11-12T12:17:08.356Z,84.55
2017-11-12T12:19:38.206Z,85.16
2017-11-12T12:22:08.143Z,84.30
2017-11-12T12:24:38.044Z,85.29
2017-11-12T12:27:07.866Z,84.90
2017-11-12T12:29:37.662Z,85.11
2017-11-12T12:32:07.414Z,84.70
2017-11-12T12:34:37.150Z,84.21
2017-11-12T12:37:06.871Z,84.47
2017-11-12T12:39:36.673Z,85.54
2017-11-12T12:42:06.426Z,85.33
2017-11-12T12:44:40.572Z,86.26
2017-11-12T12:49:47.584Z,83.83
2017-11-12T12:52:17.648Z,84.08
2017-11-12T12:54:47.960Z,85.56
2017-11-12T12:57:17.734Z,85.06
2017-11-12T12:59:47.728Z,85.49
2017-11-12T13:02:17.539Z,86.27
2017-11-12T13:04:49.477Z,86.87
2017-11-12T13:07:19.304Z,87.41
2017-11-12T13:09:49.147Z,89.78
2017-11-12T13:12:18.900Z,90.82
2017-11-12T13:14:48.487Z,89.81
2017-11-12T13:17:18.293Z,90.74
2017-11-12T13:19:48.056Z,89.34
2017-11-12T13:22:18.042Z,90.28
2017-11-12T13:24:47.781Z,88.80
2017-11-12T13:27:17.580Z,88.97
2017-11-12T13:29:47.571Z,89.00
2017-11-12T13:32:17.396Z,89.20
2017-11-12T13:34:46.628Z,90.55
2017-11-12T13:37:16.379Z,89.66
2017-11-12T13:39:45.857Z,89.78
2017-11-12T13:42:15.598Z,89.67
2017-11-12T13:44:45.347Z,89.70
2017-11-12T13:47:15.087Z,90.38
2017-11-12T13:49:44.977Z,91.14
2017-11-12T13:52:14.863Z,89.17
2017-11-12T13:54:44.601Z,89.64
2017-11-12T13:57:14.499Z,90.52
2017-11-12T13:59:44.225Z,90.39
2017-11-12T14:02:15.166Z,90.33
2017-11-12T14:04:44.579Z,91.21
2017-11-12T14:07:14.354Z,91.59
2017-11-12T14:09:44.119Z,92.54
2017-11-12T14:12:13.886Z,90.62
2017-11-12T14:14:43.643Z,92.48
2017-11-12T14:17:13.574Z,91.65
2017-11-12T14:19:45.057Z,91.74
2017-11-12T14:22:15.059Z,91.90
2017-11-12T14:24:44.817Z,94.34
2017-11-12T14:27:14.591Z,91.65
2017-11-12T14:29:44.334Z,92.46
2017-11-12T14:32:14.097Z,92.49
2017-11-12T14:34:43.916Z,92.22
2017-11-12T14:37:16.911Z,92.51
2017-11-12T14:39:47.685Z,93.29
2017-11-12T14:42:17.691Z,94.22
2017-11-12T14:44:47.427Z,94.52
2017-11-12T14:47:17.187Z,94.01
2017-11-12T14:49:46.950Z,92.80
2017-11-12T14:52:16.691Z,93.34
2017-11-12T14:54:46.440Z,92.76
2017-11-12T14:57:16.243Z,94.26
2017-11-12T14:59:46.253Z,94.56
2017-11-12T15:02:16.061Z,94.18
2017-11-12T15:04:46.762Z,94.80
2017-11-12T15:07:16.535Z,95.53
2017-11-12T15:09:46.363Z,95.75
2017-11-12T15:12:16.110Z,96.25
2017-11-12T15:14:45.667Z,96.21
2017-11-12T15:17:15.426Z,95.83
2017-11-12T15:19:45.191Z,95.11
2017-11-12T15:22:15.619Z,94.76
2017-11-12T15:24:45.406Z,93.56
2017-11-12T15:27:15.357Z,93.90
2017-11-12T15:29:45.100Z,94.53
2017-11-12T15:32:15.038Z,93.58
2017-11-12T15:34:44.822Z,94.00
2017-11-12T15:37:14.547Z,94.72
2017-11-12T15:39:44.907Z,95.84
2017-11-12T15:42:14.674Z,96.24
2017-11-12T15:44:44.431Z,96.90
2017-11-12T15:47:14.015Z,96.80
2017-11-12T15:49:43.798Z,97.28
2017-11-12T15:52:13.540Z,97.33
2017-11-12T15:54:43.362Z,97.69
2017-11-12T15:57:16.961Z,96.43
2017-11-12T15:59:46.696Z,96.50
2017-11-12T16:02:16.453Z,97.09
2017-11-12T16:04:46.219Z,96.35
2017-11-12T16:07:16.101Z,96.25
2017-11-12T16:09:47.131Z,96.65
2017-11-12T16:12:16.928Z,96.78
2017-11-12T16:14:46.865Z,97.17
2017-11-12T16:17:16.495Z,96.72
2017-11-12T16:19:46.158Z,97.66
2017-11-12T16:22:15.963Z,98.32
2017-11-12T16:24:45.794Z,98.82
2017-11-12T16:27:15.642Z,98.66
2017-11-12T16:29:45.902Z,98.15
2017-11-12T16:32:15.825Z,99.45
2017-11-12T16:34:45.556Z,100.00
2017-11-12T16:37:15.424Z,100.00
2017-11-12T16:39:45.241Z,100.00
2017-11-12T16:42:14.791Z,100.00
2017-11-12T16:44:44.541Z,100.00
2017-11-12T16:47:14.417Z,100.00
2017-11-12T16:49:44.049Z,100.00
2017-11-12T16:52:13.809Z,100.00
2017-11-12T16:54:43.580Z,100.00
2017-11-12T16:57:13.134Z,100.00
2017-11-12T16:59:43.409Z,100.00
2017-11-12T17:02:13.201Z,100.00
2017-11-12T17:04:42.971Z,100.00
2017-11-12T17:07:12.762Z,100.00
2017-11-12T17:09:42.567Z,100.00
2017-11-12T17:12:12.396Z,100.00
2017-11-12T17:14:46.356Z,100.00
2017-11-12T17:17:16.136Z,100.00
2017-11-12T17:19:46.483Z,100.00
2017-11-12T17:22:16.279Z,100.00
2017-11-12T17:24:46.108Z,100.00
2017-11-12T17:27:15.870Z,100.00
2017-11-12T17:29:45.706Z,100.00
2017-11-12T17:32:15.524Z,100.00
2017-11-12T17:34:45.334Z,100.00
2017-11-12T17:37:15.128Z,100.00
2017-11-12T17:39:45.205Z,100.00
2017-11-12T17:42:15.066Z,100.00
2017-11-12T17:44:44.869Z,100.00
2017-11-12T17:47:14.652Z,100.00
2017-11-12T17:49:44.418Z,100.00
2017-11-12T17:52:14.266Z,100.00
2017-11-12T17:54:44.045Z,100.00
2017-11-12T17:57:13.781Z,100.00
2017-11-12T17:59:43.561Z,100.00
2017-11-12T18:02:13.379Z,100.00
2017-11-12T18:04:43.186Z,100.00
2017-11-12T18:07:13.011Z,100.00
2017-11-12T18:09:42.759Z,100.00
2017-11-12T18:12:12.585Z,100.00
2017-11-12T18:14:42.352Z,100.00
2017-11-12T18:17:12.142Z,100.00
2017-11-12T18:19:41.902Z,100.00
2017-11-12T18:22:11.680Z,100.00
2017-11-12T18:24:41.434Z,100.00
2017-11-12T18:27:11.212Z,100.00
2017-11-12T18:29:41.061Z,100.00
2017-11-12T18:32:10.888Z,100.00
2017-11-12T18:34:40.761Z,100.00
2017-11-12T18:37:10.639Z,100.00
2017-11-12T18:39:40.031Z,100.00
2017-11-12T18:42:09.650Z,100.00
2017-11-12T18:44:39.460Z,100.00
2017-11-12T18:47:09.782Z,100.00
2017-11-12T18:49:39.307Z,100.00
2017-11-12T18:52:09.751Z,100.00
2017-11-12T18:54:39.559Z,100.00
2017-11-12T18:57:11.231Z,100.00
2017-11-12T18:59:41.219Z,99.70
2017-11-12T19:05:24.833Z,100.00
2017-11-12T19:07:58.114Z,100.00
2017-11-12T19:10:28.214Z,100.00
2017-11-12T19:12:57.933Z,100.00
2017-11-12T19:15:27.641Z,99.20
2017-11-12T19:18:00.843Z,99.53
2017-11-12T19:20:40.381Z,99.97
2017-11-12T19:23:15.368Z,98.54
2017-11-12T19:25:46.220Z,97.48
2017-11-12T19:28:17.124Z,98.61
2017-11-12T19:30:47.167Z,99.31
2017-11-12T19:33:16.729Z,100.00
2017-11-12T19:35:47.222Z,100.00
2017-11-12T19:38:18.054Z,99.78
2017-11-12T19:40:48.029Z,99.61
2017-11-12T19:43:17.809Z,100.00
2017-11-12T19:45:47.710Z,98.97
2017-11-12T19:48:21.680Z,99.51
2017-11-12T19:50:51.632Z,98.43
2017-11-12T19:53:21.410Z,97.51
2017-11-12T19:55:51.622Z,98.20
2017-11-12T19:58:21.546Z,98.18
2017-11-12T20:00:51.414Z,94.83
2017-11-12T20:03:21.267Z,98.42
2017-11-12T20:05:51.205Z,95.87
2017-11-12T20:08:21.049Z,94.23
2017-11-12T20:10:50.880Z,93.47
2017-11-12T20:13:20.660Z,94.92
2017-11-12T20:15:50.462Z,95.38
2017-11-12T20:18:20.284Z,96.73
2017-11-12T20:20:49.974Z,98.53
2017-11-12T20:23:19.864Z,96.67
2017-11-12T20:25:49.907Z,97.68
2017-11-12T20:28:19.994Z,96.38
2017-11-12T20:30:50.050Z,96.28
2017-11-12T20:33:20.023Z,95.65
2017-11-12T20:35:50.036Z,94.28
2017-11-12T20:38:19.968Z,94.41
2017-11-12T20:40:49.889Z,96.91
2017-11-12T20:43:19.778Z,91.48
2017-11-12T20:45:49.624Z,93.69
2017-11-12T20:48:20.315Z,93.86
2017-11-12T20:50:50.334Z,90.12
2017-11-12T20:53:20.015Z,90.20
2017-11-12T20:55:49.794Z,91.27
2017-11-12T20:58:19.587Z,94.69
2017-11-12T21:00:50.804Z,92.41
2017-11-12T21:03:31.203Z,92.84
2017-11-12T21:06:00.759Z,92.21
2017-11-12T21:08:30.402Z,90.17
2017-11-12T21:11:00.301Z,89.18
2017-11-12T21:13:29.975Z,86.59
2017-11-12T21:15:59.827Z,87.96
2017-11-12T21:18:29.624Z,85.57
2017-11-12T21:20:59.389Z,85.90
2017-11-12T21:23:30.479Z,85.65
2017-11-12T21:26:00.463Z,84.45
2017-11-12T21:31:36.267Z,85.23
2017-11-12T21:34:10.528Z,84.63
2017-11-12T21:36:40.100Z,83.57
2017-11-12T21:39:09.744Z,83.92
2017-11-12T21:41:39.430Z,84.19
2017-11-12T21:44:08.970Z,84.65
2017-11-12T21:46:39.043Z,92.10
2017-11-12T21:49:09.228Z,82.70
2017-11-12T21:51:39.448Z,82.53
2017-11-12T21:54:09.661Z,80.61
2017-11-12T21:56:39.702Z,79.51
2017-11-12T21:59:09.833Z,77.88
2017-11-12T22:01:40.108Z,75.67
2017-11-12T22:04:19.431Z,79.64
2017-11-12T22:06:55.453Z,75.83
2017-11-12T22:09:25.664Z,77.80
2017-11-12T22:11:56.136Z,78.86
2017-11-12T22:14:26.540Z,78.53
2017-11-12T22:16:58.023Z,80.52
2017-11-12T22:19:28.222Z,81.37
2017-11-12T22:21:58.641Z,81.06
2017-11-12T22:24:28.583Z,82.68
2017-11-12T22:26:58.517Z,83.48
2017-11-12T22:29:30.087Z,84.01
2017-11-12T22:32:00.121Z,84.16
2017-11-12T22:34:29.868Z,82.98
2017-11-12T22:36:59.473Z,83.48
2017-11-12T22:39:29.194Z,84.00
2017-11-12T22:41:58.960Z,83.81
2017-11-12T22:44:28.712Z,84.59
2017-11-12T22:46:58.469Z,84.16
2017-11-12T22:49:28.203Z,84.62
2017-11-12T22:51:57.993Z,85.38
2017-11-12T22:54:27.758Z,85.05
2017-11-12T22:56:57.507Z,85.30
2017-11-12T22:59:28.049Z,85.60
2017-11-12T23:01:57.800Z,86.24
2017-11-12T23:04:27.629Z,85.62
2017-11-12T23:06:57.368Z,86.75
2017-11-12T23:09:27.096Z,86.12
2017-11-12T23:11:56.853Z,86.02
2017-11-12T23:14:26.617Z,86.07
2017-11-12T23:16:56.170Z,85.95
2017-11-12T23:19:25.764Z,85.45
2017-11-12T23:21:55.535Z,85.88
2017-11-12T23:24:25.260Z,87.40
2017-11-12T23:26:55.023Z,87.88
2017-11-12T23:29:24.785Z,86.87
2017-11-12T23:31:54.780Z,87.31
2017-11-12T23:34:24.531Z,86.79
2017-11-12T23:36:54.259Z,88.39
2017-11-12T23:39:24.014Z,89.51
2017-11-12T23:41:53.745Z,89.56
2017-11-12T23:44:23.510Z,87.69
2017-11-12T23:46:53.250Z,88.24
2017-11-12T23:49:22.976Z,87.68
2017-11-12T23:51:52.773Z,88.62
2017-11-12T23:54:22.528Z,88.20
2017-11-12T23:56:52.372Z,87.83
2017-11-12T23:59:22.110Z,87.83
